Time;durP1;ratioP1;P1;durP2;ratioP2;P2;SDS_P1;SDS_P2;PMS_P1;PMS_P2;Temp;Humidity;BMP_temperature;BMP_pressure;BME280_temperature;BME280_humidity;BME280_pressure;Samples;Min_cycle;Max_cycle;Signal;HPM_P1;HPM_P2
2021/03/27 00:01:22;;;;;;;23.10;13.10;;;;;;;8.35;75.13;96808.53;4998166;28;20490;-61
2021/03/27 00:04:08;;;;;;;29.55;14.88;;;;;;;8.26;75.36;96805.16;5003121;28;20046;-61
2021/03/27 00:06:41;;;;;;;26.65;12.57;;;;;;;8.50;74.16;96802.34;5003419;28;20040;-61
2021/03/27 00:09:23;;;;;;;25.95;13.90;;;;;;;8.49;72.98;96810.88;4997087;28;20045;-60
2021/03/27 00:12:25;;;;;;;27.67;14.57;;;;;;;8.38;74.37;96824.22;5002645;28;20445;-61
2021/03/27 00:15:00;;;;;;;27.65;13.57;;;;;;;8.41;74.83;96845.38;5001023;28;20034;-60
2021/03/27 00:18:04;;;;;;;26.48;11.80;;;;;;;8.55;75.34;96848.50;4996743;28;20077;-60
2021/03/27 00:20:35;;;;;;;21.17;12.90;;;;;;;8.59;75.68;96846.66;4992260;28;20054;-63
2021/03/27 00:23:09;;;;;;;22.13;13.38;;;;;;;8.54;75.94;96844.16;5000541;28;20494;-60
2021/03/27 00:25:39;;;;;;;29.13;16.85;;;;;;;8.73;74.90;96845.44;5000092;28;20169;-60
2021/03/27 00:28:20;;;;;;;27.60;15.00;;;;;;;8.53;75.97;96833.59;4995411;28;20045;-61
2021/03/27 00:30:53;;;;;;;24.25;13.30;;;;;;;8.21;77.41;96823.38;5000823;28;20048;-61
2021/03/27 00:33:25;;;;;;;25.92;13.05;;;;;;;8.19;77.35;96822.13;4996018;28;20034;-62
2021/03/27 00:35:56;;;;;;;27.05;13.10;;;;;;;8.24;76.51;96813.69;5001618;28;20050;-61
2021/03/27 00:38:25;;;;;;;22.90;12.00;;;;;;;8.46;76.55;96801.44;4996882;28;20743;-61
2021/03/27 00:40:52;;;;;;;21.13;12.17;;;;;;;8.51;75.56;96800.41;5000126;28;20116;-60
2021/03/27 00:43:40;;;;;;;19.40;11.32;;;;;;;8.49;75.25;96806.22;4994250;28;20514;-60
2021/03/27 00:46:10;;;;;;;24.88;13.20;;;;;;;8.62;75.59;96812.38;4995829;28;20204;-61
2021/03/27 00:48:40;;;;;;;21.83;12.07;;;;;;;8.53;76.00;96811.75;5000078;28;20041;-62
2021/03/27 00:51:28;;;;;;;27.23;12.75;;;;;;;8.26;76.50;96813.34;4987785;28;20042;-60
2021/03/27 00:54:23;;;;;;;23.35;12.27;;;;;;;8.21;77.09;96820.66;5001010;28;20049;-61
2021/03/27 00:57:05;;;;;;;25.38;13.55;;;;;;;8.37;76.82;96837.06;5000061;28;20518;-62
2021/03/27 00:59:38;;;;;;;24.45;10.98;;;;;;;8.70;74.51;96849.66;4998323;28;20103;-60
2021/03/27 01:02:10;;;;;;;23.60;12.98;;;;;;;8.75;72.96;96854.06;4996868;28;20041;-61
2021/03/27 01:04:38;;;;;;;19.20;10.55;;;;;;;8.81;72.16;96830.81;4999382;28;20049;-61
2021/03/27 01:07:09;;;;;;;20.52;9.27;;;;;;;8.90;70.95;96838.84;4992821;28;20033;-62
2021/03/27 01:10:00;;;;;;;20.02;10.32;;;;;;;9.11;70.68;96835.81;5003730;28;20506;-61
2021/03/27 01:12:32;;;;;;;17.73;10.55;;;;;;;9.17;70.95;96831.69;4982925;28;20072;-61
2021/03/27 01:15:05;;;;;;;20.13;10.98;;;;;;;9.26;70.71;96831.53;5001509;28;20132;-61
2021/03/27 01:17:35;;;;;;;21.48;11.02;;;;;;;9.12;71.01;96832.75;5004052;28;20042;-61
2021/03/27 01:20:10;;;;;;;21.65;12.00;;;;;;;9.18;71.50;96825.88;5004211;28;20053;-59
2021/03/27 01:22:35;;;;;;;22.05;10.05;;;;;;;9.22;71.45;96825.97;5003648;28;20038;-62
2021/03/27 01:25:06;;;;;;;19.38;10.05;;;;;;;9.17;71.94;96820.78;5002830;28;20514;-60
2021/03/27 01:28:14;;;;;;;18.08;9.75;;;;;;;9.07;72.71;96822.06;5004049;28;20050;-59
2021/03/27 01:30:42;;;;;;;15.00;8.48;;;;;;;9.06;73.08;96817.78;4973428;28;20042;-61
2021/03/27 01:33:08;;;;;;;13.60;7.05;;;;;;;9.09;73.35;96822.53;4979346;28;20061;-60
2021/03/27 01:35:40;;;;;;;13.15;6.60;;;;;;;9.20;73.25;96817.34;4984396;28;20038;-61
2021/03/27 01:38:13;;;;;;;12.20;5.68;;;;;;;9.35;72.42;96821.97;4979026;28;20395;-59
2021/03/27 01:40:53;;;;;;;8.43;5.00;;;;;;;9.34;72.91;96823.09;4990447;28;20520;-61
2021/03/27 01:43:36;;;;;;;5.68;3.38;;;;;;;9.43;72.54;96816.66;4999746;28;20072;-57
2021/03/27 01:46:33;;;;;;;6.15;3.40;;;;;;;9.52;72.55;96812.56;5002014;28;20383;-61
2021/03/27 01:49:06;;;;;;;6.22;3.45;;;;;;;9.62;72.57;96802.25;5004537;28;20195;-59
2021/03/27 01:51:55;;;;;;;7.18;3.75;;;;;;;9.61;72.72;96808.84;5006481;28;20505;-57
2021/03/27 01:54:56;;;;;;;8.73;3.83;;;;;;;9.54;72.69;96813.03;4999332;28;20085;-60
2021/03/27 01:57:21;;;;;;;6.78;3.67;;;;;;;9.50;73.77;96808.63;4983684;28;20050;-61
2021/03/27 01:59:56;;;;;;;7.00;4.20;;;;;;;9.52;73.36;96809.06;5003759;28;20128;-60
2021/03/27 02:02:34;;;;;;;5.35;3.60;;;;;;;9.50;73.52;96812.13;4997254;28;20050;-60
2021/03/27 02:05:06;;;;;;;6.00;3.35;;;;;;;9.46;74.54;96805.81;5002537;28;20042;-61
2021/03/27 02:07:44;;;;;;;7.97;3.72;;;;;;;9.42;74.97;96815.06;5009279;28;20045;-62
2021/03/27 02:10:29;;;;;;;5.68;3.33;;;;;;;9.45;74.92;96815.16;5010503;28;20100;-62
2021/03/27 02:13:14;;;;;;;5.20;3.50;;;;;;;9.51;74.74;96807.50;5007375;28;20037;-60
2021/03/27 02:16:01;;;;;;;7.28;4.32;;;;;;;9.50;75.33;96816.81;5004423;28;20042;-57
2021/03/27 02:18:44;;;;;;;7.82;4.03;;;;;;;9.32;75.65;96817.22;5015159;28;20042;-60
2021/03/27 02:21:43;;;;;;;6.65;3.83;;;;;;;9.29;76.04;96814.38;4998541;28;20109;-59
2021/03/27 02:24:35;;;;;;;7.40;4.50;;;;;;;9.14;77.08;96819.53;4995617;28;20038;-60
2021/03/27 02:27:12;;;;;;;6.40;3.83;;;;;;;9.16;77.46;96821.91;5001956;28;20048;-61
2021/03/27 02:30:02;;;;;;;7.18;3.47;;;;;;;9.27;77.21;96808.50;5004897;28;20072;-61
2021/03/27 02:32:39;;;;;;;8.68;4.18;;;;;;;9.34;77.29;96793.03;5005568;28;20046;-61
2021/03/27 02:35:09;;;;;;;9.02;4.05;;;;;;;9.23;78.28;96792.00;4996172;28;20040;-61
2021/03/27 02:37:46;;;;;;;9.30;4.47;;;;;;;9.07;80.63;96808.41;5002773;28;20061;-63
2021/03/27 02:40:20;;;;;;;7.55;4.47;;;;;;;8.85;83.23;96858.22;4998843;28;20053;-60
2021/03/27 02:43:02;;;;;;;10.15;4.60;;;;;;;8.78;83.99;96862.34;5002700;28;20399;-57
2021/03/27 02:45:37;;;;;;;8.52;4.97;;;;;;;8.70;84.86;96868.00;4999573;28;20038;-57
2021/03/27 02:48:29;;;;;;;7.82;4.95;;;;;;;8.62;85.24;96877.91;4998977;28;20042;-62
2021/03/27 02:51:05;;;;;;;6.93;4.57;;;;;;;8.57;85.75;96887.16;5002195;28;20131;-57
2021/03/27 02:53:58;;;;;;;8.50;5.18;;;;;;;8.57;86.02;96883.63;5001884;28;20129;-58
2021/03/27 02:56:30;;;;;;;7.78;4.78;;;;;;;8.37;85.83;96894.38;4998826;28;20574;-62
2021/03/27 02:58:56;;;;;;;6.85;4.50;;;;;;;8.41;85.96;96884.34;5003698;28;20100;-62
2021/03/27 03:01:31;;;;;;;6.77;4.27;;;;;;;8.40;85.45;96901.06;4996519;28;20792;-60
2021/03/27 03:04:08;;;;;;;6.03;3.45;;;;;;;8.39;85.24;96916.66;5002940;28;20304;-60
2021/03/27 03:06:51;;;;;;;7.40;3.83;;;;;;;8.37;84.46;96929.06;5000646;28;20077;-61
2021/03/27 03:09:31;;;;;;;4.88;2.95;;;;;;;8.46;84.07;96916.09;4997970;28;20053;-61
2021/03/27 03:11:56;;;;;;;5.97;3.55;;;;;;;8.41;84.41;96906.19;4985321;28;20046;-60
2021/03/27 03:14:42;;;;;;;5.35;3.35;;;;;;;8.24;84.93;96920.13;4980537;28;20259;-58
2021/03/27 03:17:31;;;;;;;9.43;4.65;;;;;;;8.00;85.92;96921.78;4996211;28;20095;-58
2021/03/27 03:20:22;;;;;;;8.40;3.78;;;;;;;7.89;85.94;96942.47;5002366;28;20069;-60
2021/03/27 03:22:57;;;;;;;6.88;3.35;;;;;;;7.78;86.10;96955.00;5001441;28;20038;-58
2021/03/27 03:25:28;;;;;;;5.97;2.90;;;;;;;7.62;86.28;96995.78;5001687;28;20088;-60
2021/03/27 03:28:12;;;;;;;4.03;2.40;;;;;;;7.49;86.15;96984.06;5002823;28;20073;-58
2021/03/27 03:30:50;;;;;;;4.55;2.28;;;;;;;7.42;85.98;97000.97;5000847;28;20053;-61
2021/03/27 03:33:45;;;;;;;5.35;1.98;;;;;;;7.34;86.56;96993.69;4996616;28;20056;-61
2021/03/27 03:36:23;;;;;;;4.07;1.73;;;;;;;7.39;87.06;96989.94;4988488;28;20050;-61
2021/03/27 03:39:16;;;;;;;3.13;1.55;;;;;;;7.38;87.32;96996.53;5001194;28;20041;-61
2021/03/27 03:42:21;;;;;;;3.30;1.60;;;;;;;7.31;88.29;97012.63;4999406;28;20053;-59
2021/03/27 03:45:01;;;;;;;3.17;1.80;;;;;;;7.15;90.53;97026.09;4995679;28;20071;-61
2021/03/27 03:47:40;;;;;;;2.88;1.60;;;;;;;7.16;90.74;97038.59;4994753;28;20045;-60
2021/03/27 03:50:30;;;;;;;3.20;1.60;;;;;;;7.18;91.51;97039.06;4987516;28;20049;-62
2021/03/27 03:53:28;;;;;;;2.28;1.50;;;;;;;7.14;90.83;97052.56;5000551;28;20502;-60
2021/03/27 03:56:05;;;;;;;3.65;2.80;;;;;;;7.08;90.05;97057.41;4998971;28;20049;-61
2021/03/27 03:58:46;;;;;;;5.55;1.90;;;;;;;7.05;90.88;97066.25;5000590;28;20050;-61
2021/03/27 04:01:40;;;;;;;3.55;2.00;;;;;;;7.01;89.89;97070.78;4988318;28;20054;-62
2021/03/27 04:04:24;;;;;;;3.25;2.13;;;;;;;7.00;89.29;97069.16;4994225;28;20041;-60
2021/03/27 04:07:21;;;;;;;3.25;1.75;;;;;;;6.99;88.76;97080.44;5000221;28;20557;-57
2021/03/27 04:09:59;;;;;;;4.40;2.45;;;;;;;6.92;89.78;97082.88;4993866;28;20042;-59
2021/03/27 04:12:38;;;;;;;5.00;2.25;;;;;;;6.87;89.89;97081.16;4990224;28;20042;-60
2021/03/27 04:15:09;;;;;;;2.92;2.17;;;;;;;6.93;90.10;97085.25;4992937;28;20490;-64
2021/03/27 04:17:52;;;;;;;6.13;2.65;;;;;;;6.93;90.27;97082.53;4998315;28;20136;-61
2021/03/27 04:20:52;;;;;;;5.53;2.47;;;;;;;6.90;91.05;97088.66;4983264;28;20104;-60
2021/03/27 04:23:23;;;;;;;8.43;4.22;;;;;;;6.90;91.52;97088.66;4994869;28;20676;-58
2021/03/27 04:26:13;;;;;;;3.88;2.58;;;;;;;6.96;91.24;97090.03;4999270;28;20060;-61
2021/03/27 04:28:48;;;;;;;6.15;2.38;;;;;;;7.00;90.84;97082.78;4999808;28;20046;-60
2021/03/27 04:31:35;;;;;;;4.20;2.30;;;;;;;7.01;91.29;97086.31;4993845;28;20050;-59
2021/03/27 04:34:19;;;;;;;4.72;2.35;;;;;;;7.03;91.72;97086.78;4999957;28;20113;-61
2021/03/27 04:37:08;;;;;;;5.20;2.45;;;;;;;7.05;91.38;97085.31;4996037;28;20556;-59
2021/03/27 04:39:49;;;;;;;2.43;1.83;;;;;;;6.98;91.13;97085.06;5000004;28;20053;-58
2021/03/27 04:42:39;;;;;;;3.22;2.03;;;;;;;7.12;90.63;97081.25;4991974;28;20052;-61
2021/03/27 04:45:12;;;;;;;4.90;2.30;;;;;;;7.15;89.71;97075.94;4998545;28;20542;-62
2021/03/27 04:47:44;;;;;;;6.10;2.33;;;;;;;7.10;89.05;97075.34;5003941;28;20069;-61
2021/03/27 04:50:37;;;;;;;3.13;2.15;;;;;;;7.00;89.85;97085.50;5001034;28;20108;-63
2021/03/27 04:53:10;;;;;;;4.10;2.55;;;;;;;6.99;88.60;97083.94;5012755;28;20616;-64
2021/03/27 04:55:52;;;;;;;4.45;2.80;;;;;;;6.95;90.20;97090.38;5018265;28;20052;-60
2021/03/27 04:58:58;;;;;;;5.22;2.28;;;;;;;6.97;89.43;97088.09;4998927;28;20061;-61
2021/03/27 05:01:52;;;;;;;3.30;2.55;;;;;;;6.94;89.56;97084.13;4997799;28;20057;-59
2021/03/27 05:04:42;;;;;;;3.78;2.33;;;;;;;6.94;89.25;97088.78;4998439;28;20077;-62
2021/03/27 05:07:28;;;;;;;5.55;2.20;;;;;;;6.79;90.23;97095.63;4997540;28;20552;-58
2021/03/27 05:10:17;;;;;;;7.07;2.08;;;;;;;6.79;90.21;97101.88;5004001;28;20510;-61
2021/03/27 05:12:57;;;;;;;4.43;2.35;;;;;;;6.74;89.96;97112.97;5002459;28;20042;-60
2021/03/27 05:15:44;;;;;;;4.90;2.20;;;;;;;6.68;90.32;97125.16;4996243;28;20287;-61
2021/03/27 05:18:47;;;;;;;3.85;2.20;;;;;;;6.70;89.61;97133.81;4997999;28;20041;-59
2021/03/27 05:21:29;;;;;;;5.68;2.80;;;;;;;6.68;90.22;97136.03;4993785;28;20049;-61
2021/03/27 05:24:26;;;;;;;4.43;1.88;;;;;;;6.71;89.66;97138.13;5001128;28;20038;-60
2021/03/27 05:27:06;;;;;;;7.35;2.10;;;;;;;6.68;89.81;97146.94;5004732;28;20038;-59
2021/03/27 05:29:32;;;;;;;4.60;2.50;;;;;;;6.71;89.60;97143.56;5003334;28;20107;-62
2021/03/27 05:32:03;;;;;;;5.75;2.28;;;;;;;6.72;90.17;97153.34;5002468;28;20075;-58
2021/03/27 05:34:38;;;;;;;4.28;2.30;;;;;;;6.61;90.65;97155.63;4999281;28;20132;-59
2021/03/27 05:37:19;;;;;;;5.53;2.63;;;;;;;6.59;90.73;97157.06;4992519;28;20046;-62
2021/03/27 05:39:55;;;;;;;5.50;2.53;;;;;;;6.61;92.46;97174.69;5002880;28;20074;-60
2021/03/27 05:42:39;;;;;;;4.63;2.42;;;;;;;6.62;91.50;97172.75;4996792;28;20052;-59
2021/03/27 05:45:33;;;;;;;5.45;2.58;;;;;;;6.70;90.54;97172.72;4990364;28;20045;-59
2021/03/27 05:48:36;;;;;;;4.85;2.10;;;;;;;6.67;90.97;97181.53;5002573;28;20053;-56
2021/03/27 05:51:39;;;;;;;6.45;2.40;;;;;;;6.70;91.55;97191.75;4984012;28;20042;-62
2021/03/27 05:54:16;;;;;;;6.05;3.63;;;;;;;6.76;90.60;97192.38;4996286;28;20041;-63
2021/03/27 05:57:10;;;;;;;5.90;2.00;;;;;;;6.82;89.67;97198.41;5003409;28;20049;-60
2021/03/27 05:59:50;;;;;;;3.38;2.10;;;;;;;6.75;89.96;97198.94;5001227;28;20449;-57
2021/03/27 06:02:40;;;;;;;4.63;2.33;;;;;;;6.77;89.60;97201.31;4996011;28;20042;-59
2021/03/27 06:05:25;;;;;;;;;;;;;;;6.63;90.50;97205.09;4997857;28;20127;-58
2021/03/27 06:08:34;;;;;;;5.28;2.20;;;;;;;6.63;90.08;97213.25;5002925;28;20417;-60
2021/03/27 06:11:18;;;;;;;4.23;2.20;;;;;;;6.57;89.42;97221.94;5001651;28;20494;-60
2021/03/27 06:13:47;;;;;;;4.90;2.20;;;;;;;6.45;88.69;97230.81;5002377;28;20300;-61
2021/03/27 06:16:23;;;;;;;11.50;3.05;;;;;;;6.44;88.72;97227.25;4997728;28;20052;-59
2021/03/27 06:19:17;;;;;;;3.42;1.88;;;;;;;6.38;88.11;97238.69;5001809;28;20502;-61
2021/03/27 06:22:09;;;;;;;4.35;1.80;;;;;;;6.33;89.18;97242.34;5013881;28;20103;-62
2021/03/27 06:24:37;;;;;;;4.63;2.13;;;;;;;6.41;88.48;97246.16;5015479;28;20525;-60
2021/03/27 06:27:30;;;;;;;2.92;1.65;;;;;;;6.41;87.92;97235.28;4988024;28;20490;-61
2021/03/27 06:30:14;;;;;;;2.15;1.60;;;;;;;6.47;88.27;97261.19;4999290;28;20376;-60
2021/03/27 06:33:29;;;;;;;3.65;1.80;;;;;;;6.46;87.78;97267.75;5001444;28;20049;-60
2021/03/27 06:36:28;;;;;;;3.05;1.50;;;;;;;6.41;87.24;97278.81;4981027;28;20160;-61
2021/03/27 06:39:19;;;;;;;4.53;1.60;;;;;;;6.34;86.94;97290.22;5003450;28;20129;-60
2021/03/27 06:42:32;;;;;;;5.32;1.50;;;;;;;6.42;87.00;97294.81;5035291;23;20053;-62
2021/03/27 06:45:28;;;;;;;7.47;2.22;;;;;;;6.36;86.59;97309.72;5033411;28;20052;-62
2021/03/27 06:48:04;;;;;;;2.78;1.75;;;;;;;6.41;85.20;97301.41;5037874;28;20049;-62
2021/03/27 06:50:53;;;;;;;3.28;1.70;;;;;;;6.42;85.00;97302.97;5036549;28;20033;-63
2021/03/27 06:53:39;;;;;;;3.22;1.58;;;;;;;6.42;84.76;97318.53;5012270;28;20406;-61
2021/03/27 06:56:26;;;;;;;2.65;1.50;;;;;;;6.33;84.58;97323.97;5021880;28;20038;-62
2021/03/27 06:59:13;;;;;;;2.83;1.58;;;;;;;6.40;85.14;97324.28;5027569;28;20042;-62
2021/03/27 07:02:15;;;;;;;4.07;1.55;;;;;;;6.40;84.36;97335.16;5015885;28;20109;-62
2021/03/27 07:04:53;;;;;;;6.20;1.90;;;;;;;6.45;84.86;97340.44;5017648;28;20049;-61
2021/03/27 07:07:40;;;;;;;2.33;1.20;;;;;;;6.55;84.22;97344.72;5015082;28;20072;-61
2021/03/27 07:10:31;;;;;;;2.63;1.17;;;;;;;6.48;80.28;97336.25;5027554;28;20068;-63
2021/03/27 07:12:56;;;;;;;1.50;1.00;;;;;;;6.55;77.84;97355.63;5044952;28;20144;-63
2021/03/27 07:15:45;;;;;;;3.58;0.77;;;;;;;6.50;78.99;97364.75;5035422;28;20076;-63
2021/03/27 07:18:22;;;;;;;3.03;1.05;;;;;;;6.70;78.50;97370.66;5004408;28;20116;-63
2021/03/27 07:21:22;;;;;;;3.80;2.20;;;;;;;6.58;79.24;97375.97;5016673;28;20061;-62
2021/03/27 07:24:03;;;;;;;1.05;0.80;;;;;;;6.42;78.78;97389.25;5024999;28;20121;-61
2021/03/27 07:26:50;;;;;;;4.80;0.93;;;;;;;6.46;78.57;97391.03;5021089;28;20052;-62
2021/03/27 07:29:31;;;;;;;2.67;1.15;;;;;;;6.41;79.78;97396.63;5014423;28;20045;-62
2021/03/27 07:32:34;;;;;;;3.58;1.45;;;;;;;6.42;80.29;97400.16;5020669;28;20410;-60
2021/03/27 07:35:11;;;;;;;3.80;1.10;;;;;;;6.44;78.75;97406.84;5020027;28;20037;-61
2021/03/27 07:37:43;;;;;;;3.13;1.17;;;;;;;6.38;79.32;97412.81;5017036;28;20458;-61
2021/03/27 07:40:26;;;;;;;3.90;2.05;;;;;;;6.49;80.24;97416.78;5011210;28;20041;-62
2021/03/27 07:42:54;;;;;;;1.90;1.20;;;;;;;6.31;80.70;97422.25;5020043;28;20080;-62
2021/03/27 07:46:08;;;;;;;1.20;1.10;;;;;;;6.17;80.01;97429.75;5015631;28;20533;-60
2021/03/27 07:49:11;;;;;;;2.50;0.98;;;;;;;6.14;79.30;97435.88;5025402;28;20036;-60
2021/03/27 07:51:45;;;;;;;1.50;0.80;;;;;;;6.27;76.74;97450.41;5009859;28;20042;-61
2021/03/27 07:54:44;;;;;;;1.13;0.80;;;;;;;6.15;75.26;97442.88;5007559;28;20582;-60
2021/03/27 07:57:44;;;;;;;3.53;1.13;;;;;;;6.27;73.16;97456.66;5013045;28;20072;-63
2021/03/27 08:00:15;;;;;;;2.85;1.20;;;;;;;6.24;72.57;97468.16;5007297;28;20413;-64
2021/03/27 08:03:15;;;;;;;2.08;0.82;;;;;;;6.29;72.41;97469.94;5020633;28;20046;-62
2021/03/27 08:05:52;;;;;;;4.65;1.48;;;;;;;6.33;73.58;97473.63;5018581;28;20049;-61
2021/03/27 08:08:32;;;;;;;7.88;1.17;;;;;;;6.32;72.26;97477.47;5010634;28;20049;-61
2021/03/27 08:11:22;;;;;;;3.72;1.30;;;;;;;6.23;72.58;97485.63;5020851;28;20068;-61
2021/03/27 08:14:19;;;;;;;3.58;1.13;;;;;;;6.20;71.18;97490.91;5021194;28;20644;-62
2021/03/27 08:17:29;;;;;;;13.20;5.00;;;;;;;6.02;72.47;97496.31;5010463;28;20049;-64
2021/03/27 08:20:38;;;;;;;2.67;1.00;;;;;;;6.01;72.49;97500.13;5013366;28;20046;-61
2021/03/27 08:23:34;;;;;;;5.22;1.23;;;;;;;6.10;72.03;97509.13;5015605;28;20136;-61
2021/03/27 08:26:24;;;;;;;1.85;0.98;;;;;;;5.86;72.63;97514.94;5018568;28;20046;-60
2021/03/27 08:29:28;;;;;;;5.70;1.88;;;;;;;5.91;72.85;97530.31;5016693;28;20120;-63
2021/03/27 08:32:31;;;;;;;2.40;1.20;;;;;;;5.83;71.89;97531.88;5011670;28;20478;-61
2021/03/27 08:35:27;;;;;;;2.85;0.95;;;;;;;6.01;70.32;97543.63;5018719;28;20064;-62
2021/03/27 08:38:23;;;;;;;2.80;1.60;;;;;;;6.12;71.06;97547.69;5011651;28;20038;-62
2021/03/27 08:41:13;;;;;;;2.97;1.10;;;;;;;6.07;70.67;97541.59;5018394;28;20389;-62
2021/03/27 08:43:56;;;;;;;4.22;0.90;;;;;;;6.10;69.35;97541.78;5019182;28;20065;-62
2021/03/27 08:46:25;;;;;;;1.65;0.82;;;;;;;6.03;68.92;97555.03;5013455;28;20169;-63
2021/03/27 08:49:02;;;;;;;2.03;0.90;;;;;;;6.03;68.59;97554.22;5018816;28;20046;-61
2021/03/27 08:51:59;;;;;;;4.82;1.30;;;;;;;6.24;67.36;97576.19;5012439;28;20161;-61
2021/03/27 08:54:50;;;;;;;3.75;1.15;;;;;;;6.34;66.59;97567.72;5009326;28;20045;-62
2021/03/27 08:57:38;;;;;;;5.00;0.82;;;;;;;6.41;66.62;97559.91;5010317;28;20041;-61
2021/03/27 09:00:13;;;;;;;2.85;1.13;;;;;;;6.38;66.99;97574.13;5012983;28;20056;-60
2021/03/27 09:02:44;;;;;;;3.40;1.10;;;;;;;6.50;66.55;97578.97;5017789;28;20116;-60
2021/03/27 09:05:46;;;;;;;2.17;1.10;;;;;;;6.29;67.64;97579.56;5014311;28;20597;-61
2021/03/27 09:08:33;;;;;;;2.45;0.90;;;;;;;6.42;65.97;97590.63;5008794;28;20056;-63
2021/03/27 09:11:20;;;;;;;2.03;1.15;;;;;;;6.31;66.16;97585.47;5023384;28;20060;-62
2021/03/27 09:14:01;;;;;;;2.22;1.00;;;;;;;6.53;65.83;97596.56;5033262;28;20049;-62
2021/03/27 09:16:54;;;;;;;8.65;1.35;;;;;;;6.77;64.75;97593.38;5014555;28;20049;-61
2021/03/27 09:19:47;;;;;;;5.95;1.10;;;;;;;6.69;65.73;97593.06;5007729;28;20065;-63
2021/03/27 09:22:43;;;;;;;6.78;1.10;;;;;;;6.82;64.01;97585.84;5009325;28;20131;-61
2021/03/27 09:25:50;;;;;;;2.08;1.15;;;;;;;6.91;63.98;97604.91;5010742;28;20049;-62
2021/03/27 09:28:25;;;;;;;3.42;1.63;;;;;;;6.98;62.99;97607.16;5001135;28;20048;-62
2021/03/27 09:31:02;;;;;;;3.58;1.02;;;;;;;7.36;60.74;97599.09;5021457;28;20103;-63
2021/03/27 09:33:40;;;;;;;1.98;0.88;;;;;;;8.09;59.36;97602.91;5016229;28;20037;-63
2021/03/27 09:36:18;;;;;;;1.77;1.00;;;;;;;7.54;59.85;97599.09;5012213;28;20068;-62
2021/03/27 09:39:22;;;;;;;1.65;0.70;;;;;;;8.00;60.09;97609.19;5024284;28;20049;-62
2021/03/27 09:42:07;;;;;;;1.67;0.80;;;;;;;8.26;60.72;97602.81;5025593;28;20060;-63
2021/03/27 09:44:57;;;;;;;2.80;0.80;;;;;;;9.13;56.74;97594.06;5016008;28;20494;-62
2021/03/27 09:47:22;;;;;;;;;;;;;;;9.65;54.86;97589.19;5014060;28;20598;-62
2021/03/27 09:50:16;;;;;;;4.55;1.83;;;;;;;10.07;53.31;97597.25;5035809;28;20408;-61
2021/03/27 09:53:00;;;;;;;3.63;0.98;;;;;;;10.43;52.55;97603.91;5014012;28;20518;-62
2021/03/27 09:55:34;;;;;;;4.00;0.70;;;;;;;11.57;49.99;97600.91;5018221;28;20371;-62
2021/03/27 09:58:15;;;;;;;2.83;0.73;;;;;;;11.68;49.31;97603.94;5024135;28;20048;-62
2021/03/27 10:00:47;;;;;;;3.47;0.82;;;;;;;11.07;49.50;97613.25;5021648;28;20095;-62
2021/03/27 10:03:25;;;;;;;3.20;0.63;;;;;;;10.30;48.41;97609.34;5013490;28;20037;-63
2021/03/27 10:06:11;;;;;;;3.97;0.60;;;;;;;9.30;51.48;97620.41;5020232;28;20427;-61
2021/03/27 10:08:56;;;;;;;3.30;0.70;;;;;;;9.01;54.03;97621.31;5022585;28;20038;-62
2021/03/27 10:11:32;;;;;;;4.15;1.20;;;;;;;8.73;53.90;97612.84;5018082;28;20145;-62
2021/03/27 10:14:00;;;;;;;5.45;0.90;;;;;;;8.90;54.82;97611.94;5019986;28;20041;-61
2021/03/27 10:16:37;;;;;;;3.08;1.35;;;;;;;8.64;55.11;97617.56;5013798;28;20050;-63
2021/03/27 10:19:18;;;;;;;2.63;1.38;;;;;;;8.48;54.36;97607.25;5012918;28;20048;-63
2021/03/27 10:22:15;;;;;;;1.88;0.90;;;;;;;8.75;53.81;97619.59;5021900;28;20104;-62
2021/03/27 10:25:03;;;;;;;4.15;0.80;;;;;;;9.34;52.57;97606.88;5023312;28;20839;-63
2021/03/27 10:27:48;;;;;;;1.48;0.63;;;;;;;9.71;51.53;97607.00;5009922;28;20136;-63
2021/03/27 10:30:32;;;;;;;2.20;0.80;;;;;;;10.55;48.96;97611.28;4996626;28;20034;-63
2021/03/27 10:33:22;;;;;;;2.22;0.65;;;;;;;10.89;47.27;97612.72;5010664;28;20065;-63
2021/03/27 10:35:50;;;;;;;3.38;1.00;;;;;;;10.43;48.58;97601.16;5019084;28;20415;-63
2021/03/27 10:38:41;;;;;;;8.73;3.53;;;;;;;11.11;46.58;97603.19;5017234;28;20046;-62
2021/03/27 10:41:07;;;;;;;1.35;0.75;;;;;;;10.82;47.55;97609.75;5017749;28;20562;-62
2021/03/27 10:44:10;;;;;;;4.00;0.80;;;;;;;10.46;48.37;97609.50;5023320;28;20160;-63
2021/03/27 10:46:41;;;;;;;1.38;0.60;;;;;;;10.90;48.24;97622.53;5023404;28;20038;-63
2021/03/27 10:49:15;;;;;;;2.35;0.70;;;;;;;10.80;46.85;97607.38;5017479;28;20071;-63
2021/03/27 10:52:08;;;;;;;4.90;1.20;;;;;;;10.40;46.96;97616.31;5025647;28;20413;-63
2021/03/27 10:54:59;;;;;;;1.33;0.80;;;;;;;10.23;46.39;97620.06;5022912;28;20045;-61
2021/03/27 10:57:50;;;;;;;6.43;0.98;;;;;;;9.95;48.73;97622.66;5002033;28;20636;-63
2021/03/27 11:00:34;;;;;;;2.20;0.80;;;;;;;9.67;48.86;97622.47;4992011;28;20049;-64
2021/03/27 11:03:15;;;;;;;2.30;0.70;;;;;;;9.50;49.73;97631.66;5001587;28;20045;-62
2021/03/27 11:06:06;;;;;;;3.60;0.85;;;;;;;9.64;48.44;97631.38;5022663;28;20037;-64
2021/03/27 11:08:55;;;;;;;2.47;0.73;;;;;;;9.70;47.99;97632.75;5019622;28;20045;-64
2021/03/27 11:11:40;;;;;;;6.50;0.90;;;;;;;10.05;46.63;97624.16;5014310;28;20045;-63
2021/03/27 11:14:33;;;;;;;4.80;0.98;;;;;;;9.47;44.76;97622.22;5021094;28;20116;-61
2021/03/27 11:17:14;;;;;;;2.33;0.95;;;;;;;9.31;46.13;97621.22;5022177;28;20056;-61
2021/03/27 11:19:59;;;;;;;6.20;0.98;;;;;;;9.19;46.77;97633.69;5022426;28;20045;-62
2021/03/27 11:22:45;;;;;;;1.40;0.60;;;;;;;9.21;47.60;97627.13;5015784;28;20076;-63
2021/03/27 11:25:32;;;;;;;2.40;0.82;;;;;;;9.35;45.19;97622.94;5015803;28;20513;-63
2021/03/27 11:28:09;;;;;;;4.18;1.02;;;;;;;9.81;45.80;97619.44;5021594;28;20037;-63
2021/03/27 11:30:47;;;;;;;3.28;0.68;;;;;;;9.64;46.47;97626.69;5027885;28;20465;-62
2021/03/27 11:33:19;;;;;;;4.35;0.85;;;;;;;9.67;46.00;97627.94;5022526;28;20065;-64
2021/03/27 11:36:00;;;;;;;2.08;0.90;;;;;;;9.56;46.24;97625.66;5021544;28;20068;-63
2021/03/27 11:38:45;;;;;;;2.63;0.85;;;;;;;9.17;46.23;97635.97;5017868;28;20119;-59
2021/03/27 11:41:29;;;;;;;4.68;1.00;;;;;;;9.12;46.62;97633.44;5016247;28;20093;-62
2021/03/27 11:44:20;;;;;;;1.60;1.00;;;;;;;9.24;46.46;97635.44;5021584;28;20132;-62
2021/03/27 11:46:57;;;;;;;3.58;0.90;;;;;;;9.46;45.88;97628.81;5017546;28;20132;-63
2021/03/27 11:49:38;;;;;;;6.28;1.15;;;;;;;9.27;46.41;97634.75;5019787;28;20106;-64
2021/03/27 11:52:17;;;;;;;1.50;0.80;;;;;;;9.35;47.56;97638.56;5010473;28;20035;-63
2021/03/27 11:54:54;;;;;;;2.30;0.90;;;;;;;9.67;46.00;97619.75;5021152;28;20136;-62
2021/03/27 11:57:34;;;;;;;8.60;2.40;;;;;;;9.77;45.71;97627.53;5016988;28;20041;-63
2021/03/27 12:00:47;;;;;;;5.57;1.00;;;;;;;9.49;46.03;97632.78;5017972;28;20045;-64
2021/03/27 12:03:35;;;;;;;3.13;0.90;;;;;;;9.64;46.09;97634.91;5016427;28;20376;-64
2021/03/27 12:06:22;;;;;;;2.72;1.00;;;;;;;9.51;46.14;97647.75;5021190;28;20033;-63
2021/03/27 12:09:11;;;;;;;4.90;1.27;;;;;;;9.43;45.72;97624.00;5019234;28;20091;-63
2021/03/27 12:11:51;;;;;;;7.43;1.38;;;;;;;9.58;46.57;97639.00;5020791;28;20396;-64
2021/03/27 12:14:27;;;;;;;1.60;0.80;;;;;;;9.90;46.08;97642.84;5022324;28;20041;-63
2021/03/27 12:17:17;;;;;;;3.95;1.08;;;;;;;10.02;45.67;97638.53;5028921;28;20129;-64
2021/03/27 12:20:01;;;;;;;4.72;0.93;;;;;;;9.90;46.38;97620.13;5026243;28;20042;-64
2021/03/27 12:22:35;;;;;;;3.40;0.80;;;;;;;9.60;47.71;97638.63;5024575;28;20049;-64
2021/03/27 12:25:23;;;;;;;5.05;1.13;;;;;;;9.67;47.44;97636.16;5021450;28;20065;-64
2021/03/27 12:27:56;;;;;;;5.55;2.58;;;;;;;10.51;45.51;97641.31;5019249;28;20412;-63
2021/03/27 12:30:32;;;;;;;4.93;0.90;;;;;;;10.32;45.86;97631.72;5017848;28;20472;-64
2021/03/27 12:33:11;;;;;;;3.72;1.00;;;;;;;10.63;46.02;97635.84;5025640;28;20416;-63
2021/03/27 12:36:02;;;;;;;2.40;0.93;;;;;;;10.63;45.11;97618.59;5025079;28;20485;-63
2021/03/27 12:38:51;;;;;;;5.00;1.60;;;;;;;10.56;44.10;97632.06;5019204;28;20056;-63
2021/03/27 12:41:25;;;;;;;2.83;0.77;;;;;;;10.71;44.93;97628.63;5009489;28;20041;-64
2021/03/27 12:43:56;;;;;;;1.45;0.90;;;;;;;11.13;43.70;97622.84;5021901;28;20397;-63
2021/03/27 12:46:42;;;;;;;3.20;1.08;;;;;;;10.94;44.34;97634.41;5024216;28;22072;-64
2021/03/27 12:49:39;;;;;;;2.50;1.00;;;;;;;10.43;46.01;97623.84;5023306;28;20052;-61
2021/03/27 12:52:10;;;;;;;2.67;1.02;;;;;;;9.83;46.82;97633.56;5017820;28;20041;-61
2021/03/27 12:54:49;;;;;;;4.00;0.90;;;;;;;10.12;46.60;97629.88;5026122;28;20045;-61
2021/03/27 12:57:33;;;;;;;2.67;0.95;;;;;;;10.16;45.52;97632.72;5009180;28;20045;-62